createdAt,value
2024-01-04T00:04:27.472Z,9.4
2024-01-04T00:09:33.653Z,9.3
2024-01-04T00:14:39.682Z,9.3
2024-01-04T00:19:45.753Z,9.4
2024-01-04T00:24:51.835Z,9.4
2024-01-04T00:29:57.938Z,9.2
2024-01-04T00:35:04.018Z,9.2
2024-01-04T00:40:10.132Z,9.1
2024-01-04T00:45:16.232Z,9.1
2024-01-04T00:50:22.365Z,9.3
2024-01-04T00:55:27.489Z,9.4
2024-01-04T01:00:33.523Z,9.4
2024-01-04T01:05:39.621Z,9.4
2024-01-04T01:10:45.724Z,9.4
2024-01-04T01:15:51.861Z,9.5
2024-01-04T01:20:57.898Z,9.5
2024-01-04T01:26:03.986Z,9.4
2024-01-04T01:31:10.078Z,9.3
2024-01-04T01:36:16.200Z,9.2
2024-01-04T01:41:22.288Z,9.5
2024-01-04T01:46:28.380Z,9.5
2024-01-04T01:51:34.525Z,9.6
2024-01-04T01:56:40.579Z,9.6
2024-01-04T02:01:45.680Z,9.7
2024-01-04T02:06:51.783Z,9.7
2024-01-04T02:11:57.873Z,9.8
2024-01-04T02:17:03.950Z,9.7
2024-01-04T02:22:10.103Z,9.7
2024-01-04T02:27:16.214Z,9.7
2024-01-04T02:32:22.260Z,9.6
2024-01-04T02:37:28.342Z,9.5
2024-01-04T02:42:34.442Z,9.4
2024-01-04T02:47:40.539Z,9.4
2024-01-04T02:52:46.643Z,9.4
2024-01-04T02:57:52.738Z,9.3
2024-01-04T03:02:58.877Z,9.2
2024-01-04T03:08:03.948Z,9.1
2024-01-04T03:13:10.058Z,9.1
2024-01-04T03:18:16.144Z,9
2024-01-04T03:23:22.242Z,9
2024-01-04T03:28:28.332Z,8.9
2024-01-04T03:33:34.431Z,8.9
2024-01-04T03:38:40.549Z,8.9
2024-01-04T03:43:46.681Z,8.8
2024-01-04T03:48:52.729Z,8.9
2024-01-04T03:53:58.814Z,8.9
2024-01-04T03:59:04.892Z,8.9
2024-01-04T04:04:10.975Z,9
2024-01-04T04:09:17.065Z,9.1
2024-01-04T04:14:22.170Z,9
2024-01-04T04:19:28.277Z,9
2024-01-04T04:24:34.359Z,9
2024-01-04T04:29:40.457Z,8.7
2024-01-04T04:34:46.546Z,8.6
2024-01-04T04:39:52.695Z,8.6
2024-01-04T04:44:58.761Z,8.5
2024-01-04T04:50:04.848Z,8.4
2024-01-04T04:55:10.949Z,8.2
2024-01-04T05:00:17.045Z,8.2
2024-01-04T05:05:23.130Z,8.1
2024-01-04T05:10:29.239Z,8.2
2024-01-04T05:15:35.350Z,8.2
2024-01-04T05:20:40.493Z,8.3
2024-01-04T05:25:46.560Z,8.3
2024-01-04T05:30:52.652Z,8.4
2024-01-04T05:35:58.776Z,8.4
2024-01-04T05:41:04.910Z,8.5
2024-01-04T05:46:10.953Z,8.5
2024-01-04T05:51:17.206Z,8.6
2024-01-04T05:56:23.116Z,8.6
2024-01-04T06:01:29.219Z,8.6
2024-01-04T06:06:35.317Z,8.5
2024-01-04T06:11:41.404Z,8.6
2024-01-04T06:16:47.502Z,8.6
2024-01-04T06:21:53.603Z,8.6
2024-01-04T06:26:58.741Z,8.6
2024-01-04T06:32:04.817Z,8.6
2024-01-04T06:37:10.932Z,8.7
2024-01-04T06:42:17.022Z,8.7
2024-01-04T06:47:23.119Z,8.9
2024-01-04T06:52:29.211Z,8.8
2024-01-04T06:57:35.297Z,8.8
2024-01-04T07:02:41.395Z,8.7
2024-01-04T07:07:47.587Z,8.6
2024-01-04T07:12:53.581Z,8.5
2024-01-04T07:17:59.750Z,8.5
2024-01-04T07:23:05.771Z,8.5
2024-01-04T07:28:11.944Z,8.6
2024-01-04T07:33:16.970Z,8.5
2024-01-04T07:38:23.069Z,8.5
2024-01-04T07:43:29.164Z,8.5
2024-01-04T07:48:35.267Z,8.5
2024-01-04T07:53:41.368Z,8.5
2024-01-04T07:58:47.662Z,8.3
2024-01-04T08:03:53.728Z,8.3
2024-01-04T08:08:59.657Z,8.4
2024-01-04T08:14:05.771Z,8.5
2024-01-04T08:19:11.895Z,8.5
2024-01-04T08:24:18.008Z,8.7
2024-01-04T08:29:24.053Z,8.8
2024-01-04T08:34:30.171Z,8.7
2024-01-04T08:39:35.260Z,8.6
2024-01-04T08:44:41.524Z,8.4
2024-01-04T08:49:47.493Z,8.4
2024-01-04T08:54:53.547Z,8.4
2024-01-04T08:59:59.636Z,8.6
2024-01-04T09:05:05.741Z,8.7
2024-01-04T09:10:11.842Z,8.8
2024-01-04T09:15:17.923Z,9
2024-01-04T09:20:24.012Z,8.9
2024-01-04T09:25:30.098Z,8.9
2024-01-04T09:30:36.245Z,8.9
2024-01-04T09:35:42.317Z,8.8
2024-01-04T09:40:48.437Z,8.8
2024-01-04T09:45:53.509Z,8.8
2024-01-04T09:50:59.613Z,8.8
2024-01-04T09:56:05.703Z,8.8
2024-01-04T10:01:11.814Z,8.8
2024-01-04T10:06:17.899Z,8.7
2024-01-04T10:11:24.007Z,8.7
2024-01-04T10:16:30.068Z,8.8
2024-01-04T10:21:36.168Z,8.8
2024-01-04T10:26:42.258Z,8.8
2024-01-04T10:31:48.425Z,8.8
2024-01-04T10:36:54.460Z,8.8
2024-01-04T10:42:00.565Z,8.8
2024-01-04T10:47:06.641Z,8.7
2024-01-04T10:52:11.744Z,8.7
2024-01-04T10:57:17.846Z,8.7
2024-01-04T11:02:24.025Z,8.4
2024-01-04T11:07:30.040Z,8.3
2024-01-04T11:12:36.125Z,8.3
2024-01-04T11:17:42.337Z,8.1
2024-01-04T11:22:48.322Z,8
2024-01-04T11:27:54.566Z,7.9
2024-01-04T11:33:00.508Z,7.9
2024-01-04T11:38:06.702Z,7.7
2024-01-04T11:43:12.715Z,7.7
2024-01-04T11:48:18.812Z,7.5
2024-01-04T11:53:24.915Z,7.5
2024-01-04T11:58:30.034Z,7.5
2024-01-04T12:03:36.125Z,7.4
2024-01-04T12:08:42.232Z,7.3
2024-01-04T12:13:48.316Z,7.3
2024-01-04T12:18:54.470Z,7.3
2024-01-04T12:24:00.553Z,7.3
2024-01-04T12:29:06.605Z,7.2
2024-01-04T12:34:12.734Z,7.1
2024-01-04T12:39:18.817Z,7.1
2024-01-04T12:44:25.027Z,7
2024-01-04T12:49:31.174Z,7
2024-01-04T12:54:37.084Z,7.1
2024-01-04T12:59:43.179Z,7.1
2024-01-04T13:04:48.537Z,7.1
2024-01-04T13:09:54.473Z,7.1
2024-01-04T13:15:00.492Z,7.2
2024-01-04T13:20:06.617Z,7.1
2024-01-04T13:25:12.746Z,7.1
2024-01-04T13:30:18.768Z,7.1
2024-01-04T13:35:23.894Z,7.1
2024-01-04T13:40:29.977Z,7.1
2024-01-04T13:45:36.068Z,7.1
2024-01-04T13:50:42.318Z,7.1
2024-01-04T13:55:48.381Z,7.1
2024-01-04T14:00:54.372Z,7
2024-01-04T14:06:00.558Z,6.9
2024-01-04T14:11:06.608Z,6.8
2024-01-04T14:16:12.652Z,6.7
2024-01-04T14:21:18.766Z,6.6
2024-01-04T14:26:24.840Z,6.5
2024-01-04T14:31:30.948Z,6.4
2024-01-04T14:36:37.173Z,6.4
2024-01-04T14:41:42.355Z,6.3
2024-01-04T14:46:48.298Z,6.2
2024-01-04T14:51:54.360Z,6.1
2024-01-04T14:57:00.461Z,6
2024-01-04T15:02:06.577Z,5.9
2024-01-04T15:07:12.761Z,5.9
2024-01-04T15:12:18.734Z,5.9
2024-01-04T15:17:24.872Z,5.8
2024-01-04T15:22:30.936Z,5.8
2024-01-04T15:27:37.061Z,5.7
2024-01-04T15:32:43.231Z,5.6
2024-01-04T15:37:49.213Z,5.5
2024-01-04T15:42:55.317Z,5.4
2024-01-04T15:48:00.436Z,5.3
2024-01-04T15:53:06.616Z,5.3
2024-01-04T15:58:12.685Z,5.3
2024-01-04T16:03:18.716Z,5.2
2024-01-04T16:08:24.850Z,5.2
2024-01-04T16:13:30.921Z,5.2
2024-01-04T16:18:37.012Z,5.2
2024-01-04T16:23:43.192Z,5.2
2024-01-04T16:28:49.250Z,5.1
2024-01-04T16:33:55.319Z,5.1
2024-01-04T16:39:01.459Z,5.1
2024-01-04T16:44:07.570Z,5.1
2024-01-04T16:49:13.708Z,5.1
2024-01-04T16:54:18.769Z,5.1
2024-01-04T16:59:24.807Z,5.1
2024-01-04T17:04:30.890Z,5
2024-01-04T17:09:36.998Z,4.9
2024-01-04T17:14:43.098Z,4.9
2024-01-04T17:19:49.180Z,4.9
2024-01-04T17:24:55.279Z,4.9
2024-01-04T17:30:01.395Z,4.9
2024-01-04T17:35:07.466Z,4.9
2024-01-04T17:40:13.573Z,4.9
2024-01-04T17:45:19.845Z,4.8
2024-01-04T17:50:25.773Z,4.9
2024-01-04T17:55:31.864Z,4.9
2024-01-04T18:00:36.980Z,4.9
2024-01-04T18:05:43.134Z,4.9
2024-01-04T18:10:49.164Z,4.8
2024-01-04T18:15:55.271Z,4.8
2024-01-04T18:21:01.365Z,4.7
2024-01-04T18:26:07.462Z,4.7
2024-01-04T18:31:13.561Z,4.6
2024-01-04T18:36:19.656Z,4.6
2024-01-04T18:41:25.741Z,4.6
2024-01-04T18:46:31.875Z,4.6
2024-01-04T18:51:37.924Z,4.6
2024-01-04T18:56:44.055Z,4.5
2024-01-04T19:01:50.118Z,4.5
2024-01-04T19:06:55.240Z,4.4
2024-01-04T19:12:01.404Z,4.4
2024-01-04T19:17:07.552Z,4.4
2024-01-04T19:22:13.534Z,4.3
2024-01-04T19:27:19.619Z,4.3
2024-01-04T19:32:25.715Z,4.2
2024-01-04T19:37:31.907Z,4.1
2024-01-04T19:42:37.913Z,4.1
2024-01-04T19:47:44.017Z,4.1
2024-01-04T19:52:50.112Z,4.1
2024-01-04T19:57:56.270Z,4.1
2024-01-04T20:03:02.377Z,4
2024-01-04T20:08:08.413Z,3.8
2024-01-04T20:13:13.531Z,3.7
2024-01-04T20:18:19.759Z,3.5
2024-01-04T20:23:25.742Z,3.4
2024-01-04T20:28:31.864Z,3.3
2024-01-04T20:33:38.024Z,3.2
2024-01-04T20:38:44.024Z,3.1
2024-01-04T20:43:50.120Z,3.1
2024-01-04T20:48:56.215Z,3.1
2024-01-04T20:54:02.309Z,3.1
2024-01-04T20:59:08.440Z,3.1
2024-01-04T21:04:14.528Z,3.1
2024-01-04T21:09:20.611Z,3
2024-01-04T21:14:26.724Z,3
2024-01-04T21:19:32.066Z,2.9
2024-01-04T21:24:37.965Z,2.9
2024-01-04T21:29:44.106Z,2.9
2024-01-04T21:34:50.111Z,2.8
2024-01-04T21:39:56.202Z,2.8
2024-01-04T21:45:02.322Z,2.8
2024-01-04T21:50:08.418Z,2.9
2024-01-04T21:55:14.517Z,2.9
2024-01-04T22:00:20.648Z,3
2024-01-04T22:05:26.778Z,3.1
2024-01-04T22:10:32.825Z,3.2
2024-01-04T22:15:38.921Z,3.2
2024-01-04T22:20:45.025Z,3.2
2024-01-04T22:25:50.126Z,3.2
2024-01-04T22:30:56.255Z,3.2
2024-01-04T22:36:02.389Z,3.1
2024-01-04T22:41:08.438Z,3
2024-01-04T22:46:14.519Z,3
2024-01-04T22:51:20.592Z,3
2024-01-04T22:56:26.799Z,2.9
2024-01-04T23:01:32.844Z,3
2024-01-04T23:06:39.143Z,3.1
2024-01-04T23:11:45.023Z,3
2024-01-04T23:16:51.092Z,3
2024-01-04T23:21:57.213Z,2.9
2024-01-04T23:27:03.412Z,3
2024-01-04T23:32:08.412Z,3
2024-01-04T23:37:14.516Z,3.1
2024-01-04T23:42:20.615Z,3.1
2024-01-04T23:47:26.703Z,3.1
2024-01-04T23:52:32.814Z,3.1
2024-01-04T23:57:39.021Z,3.1
